Time;durP1;ratioP1;P1;durP2;ratioP2;P2;SDS_P1;SDS_P2;PMS_P1;PMS_P2;Temp;Humidity;BMP_temperature;BMP_pressure;BME280_temperature;BME280_humidity;BME280_pressure;Samples;Min_cycle;Max_cycle;Signal;HPM_P1;HPM_P2
2022/07/19 00:02:06;;;;;;;10.77;8.23;;;21.70;66.80;;;;;;5036260;28;20038;-13
2022/07/19 00:04:33;;;;;;;12.85;9.27;;;21.70;67.70;;;;;;5035893;28;20704;-13
2022/07/19 00:07:00;;;;;;;11.70;8.40;;;21.60;68.10;;;;;;5036531;28;20137;-14
2022/07/19 00:09:26;;;;;;;15.27;10.50;;;21.60;67.60;;;;;;5035884;28;20049;-15
2022/07/19 00:11:53;;;;;;;13.10;9.45;;;21.50;69.30;;;;;;5036082;28;20056;-13
2022/07/19 00:14:19;;;;;;;13.30;8.73;;;21.60;68.70;;;;;;5035744;28;20022;-14
2022/07/19 00:16:44;;;;;;;12.18;8.45;;;21.60;67.90;;;;;;5036206;28;20036;-13
2022/07/19 00:19:10;;;;;;;19.30;11.57;;;21.60;68.10;;;;;;5036079;28;20045;-13
2022/07/19 00:21:36;;;;;;;12.85;9.27;;;21.60;68.30;;;;;;5036046;28;20362;-13
2022/07/19 00:24:02;;;;;;;13.85;10.20;;;21.60;67.90;;;;;;5035830;28;20037;-12
2022/07/19 00:26:29;;;;;;;11.68;9.75;;;21.60;68.70;;;;;;5035548;28;20029;-13
2022/07/19 00:28:56;;;;;;;11.30;8.90;;;21.60;68.30;;;;;;5035336;28;20477;-11
2022/07/19 00:31:25;;;;;;;13.00;10.13;;;21.60;68.50;;;;;;5035578;28;20034;-15
2022/07/19 00:33:51;;;;;;;12.55;9.65;;;21.60;68.50;;;;;;5035670;28;20032;-13
2022/07/19 00:36:18;;;;;;;13.27;9.40;;;21.60;68.60;;;;;;5035246;28;20029;-13
2022/07/19 00:38:45;;;;;;;11.75;8.80;;;21.60;68.10;;;;;;5035237;28;20057;-12
2022/07/19 00:41:12;;;;;;;14.13;9.90;;;21.60;68.20;;;;;;5034231;28;20033;-12
2022/07/19 00:43:42;;;;;;;12.05;9.60;;;21.60;68.10;;;;;;5035220;28;20125;-12
2022/07/19 00:46:19;;;;;;;12.43;9.63;;;21.50;68.00;;;;;;5035338;28;20064;-13
2022/07/19 00:48:47;;;;;;;12.10;9.52;;;21.60;68.20;;;;;;5035282;28;20021;-12
2022/07/19 00:51:16;;;;;;;13.65;9.88;;;21.60;67.90;;;;;;5035446;28;20033;-13
2022/07/19 00:53:43;;;;;;;10.23;8.68;;;21.60;67.90;;;;;;5035021;28;20022;-13
2022/07/19 00:56:10;;;;;;;12.85;10.18;;;21.60;67.90;;;;;;5035373;28;20034;-13
2022/07/19 00:58:38;;;;;;;14.23;10.98;;;21.60;67.80;;;;;;5034914;28;20515;-12
2022/07/19 01:01:06;;;;;;;12.70;10.57;;;21.60;68.50;;;;;;5035266;28;20021;-13
2022/07/19 01:03:36;;;;;;;14.40;11.45;;;21.60;68.20;;;;;;5034894;28;20022;-13
2022/07/19 01:06:02;;;;;;;13.95;10.82;;;21.60;68.00;;;;;;5035269;28;20029;-13
2022/07/19 01:08:29;;;;;;;15.23;12.45;;;21.50;68.00;;;;;;5034661;28;20075;-13
2022/07/19 01:10:55;;;;;;;14.10;11.88;;;21.60;68.90;;;;;;5035086;28;20025;-13
2022/07/19 01:13:21;;;;;;;15.38;12.13;;;21.60;69.40;;;;;;5035104;28;20029;-14
2022/07/19 01:15:47;;;;;;;15.43;11.45;;;21.60;69.50;;;;;;5034986;28;20436;-12
2022/07/19 01:18:12;;;;;;;14.05;11.60;;;21.50;69.30;;;;;;5034833;28;20027;-13
2022/07/19 01:20:38;;;;;;;15.18;12.15;;;21.60;69.40;;;;;;5034926;28;20104;-13
2022/07/19 01:23:04;;;;;;;14.07;12.18;;;21.50;69.30;;;;;;5033704;28;20503;-12
2022/07/19 01:25:33;;;;;;;15.10;10.35;;;21.50;69.80;;;;;;5034870;28;20500;-13
2022/07/19 01:27:59;;;;;;;12.80;10.98;;;21.60;69.60;;;;;;5034482;28;20038;-12
2022/07/19 01:30:27;;;;;;;13.38;10.32;;;21.60;69.80;;;;;;5034228;28;20516;-16
2022/07/19 01:32:54;;;;;;;16.60;12.27;;;21.60;69.50;;;;;;5034651;28;20408;-13
2022/07/19 01:35:20;;;;;;;14.38;10.88;;;21.60;69.60;;;;;;5034365;28;20017;-15
2022/07/19 01:37:47;;;;;;;11.52;9.50;;;21.60;69.60;;;;;;5034081;28;20046;-13
2022/07/19 01:40:16;;;;;;;15.10;9.30;;;21.50;69.20;;;;;;5033618;28;20026;-16
2022/07/19 01:42:43;;;;;;;13.90;10.70;;;21.50;69.20;;;;;;5032617;28;20510;-14
2022/07/19 01:45:11;;;;;;;12.15;8.85;;;21.50;68.90;;;;;;5034112;28;20117;-12
2022/07/19 01:47:37;;;;;;;12.40;8.93;;;21.50;68.90;;;;;;5034389;28;20163;-12
2022/07/19 01:50:05;;;;;;;10.48;8.60;;;21.50;68.60;;;;;;5034244;28;20461;-13
2022/07/19 01:52:31;;;;;;;11.75;8.27;;;21.50;68.20;;;;;;5033702;28;20087;-14
2022/07/19 01:54:57;;;;;;;12.68;9.02;;;21.50;68.40;;;;;;5034199;28;20021;-13
2022/07/19 01:57:23;;;;;;;12.63;9.05;;;21.40;68.20;;;;;;5032920;28;20388;-13
2022/07/19 01:59:49;;;;;;;10.88;8.70;;;21.50;68.60;;;;;;5033934;28;20029;-14
2022/07/19 02:02:15;;;;;;;12.73;9.55;;;21.40;68.60;;;;;;5033816;28;20055;-15
2022/07/19 02:04:41;;;;;;;10.95;8.10;;;21.40;69.20;;;;;;5033713;28;20392;-13
2022/07/19 02:07:07;;;;;;;11.15;8.27;;;21.40;68.70;;;;;;5034042;28;20021;-13
2022/07/19 02:09:33;;;;;;;14.18;9.82;;;21.40;68.70;;;;;;5033890;28;20531;-14
2022/07/19 02:11:59;;;;;;;12.10;9.45;;;21.40;69.30;;;;;;5033850;28;20037;-14
2022/07/19 02:14:25;;;;;;;14.07;10.07;;;21.40;69.40;;;;;;5033391;28;20033;-12
2022/07/19 02:16:51;;;;;;;12.80;9.93;;;21.30;70.00;;;;;;5033895;28;20037;-13
2022/07/19 02:19:17;;;;;;;11.10;8.70;;;21.30;69.80;;;;;;5033557;28;20384;-12
2022/07/19 02:21:43;;;;;;;12.15;8.55;;;21.30;69.80;;;;;;5033799;28;20113;-12
2022/07/19 02:24:09;;;;;;;13.43;10.05;;;21.30;70.10;;;;;;5032111;28;20040;-13
2022/07/19 02:26:35;;;;;;;10.60;8.55;;;21.30;70.00;;;;;;5033312;28;20021;-14
2022/07/19 02:29:02;;;;;;;11.25;8.40;;;21.20;70.20;;;;;;5033684;28;20053;-12
2022/07/19 02:31:28;;;;;;;11.98;8.50;;;21.30;70.10;;;;;;5033395;28;20113;-13
2022/07/19 02:33:54;;;;;;;10.82;7.85;;;21.30;70.00;;;;;;5033629;28;20108;-14
2022/07/19 02:36:20;;;;;;;9.93;8.23;;;21.20;69.60;;;;;;5033190;28;20435;-12
2022/07/19 02:38:46;;;;;;;12.38;8.30;;;21.20;69.60;;;;;;5032867;28;20049;-14
2022/07/19 02:41:13;;;;;;;14.35;7.65;;;21.20;69.80;;;;;;5033273;28;20021;-13
2022/07/19 02:43:40;;;;;;;10.70;7.90;;;21.20;69.70;;;;;;5033004;28;20038;-14
2022/07/19 02:46:06;;;;;;;12.38;8.32;;;21.20;70.10;;;;;;5033236;28;20108;-13
2022/07/19 02:48:32;;;;;;;10.38;8.25;;;21.20;70.10;;;;;;5033211;28;20045;-14
2022/07/19 02:50:59;;;;;;;10.45;7.75;;;21.20;70.10;;;;;;5033588;28;20473;-14
2022/07/19 02:53:25;;;;;;;11.80;8.13;;;21.20;70.10;;;;;;5033107;28;20026;-14
2022/07/19 02:55:51;;;;;;;10.07;8.43;;;21.20;70.00;;;;;;5031851;28;20033;-14
2022/07/19 02:58:16;;;;;;;11.43;7.82;;;21.10;70.30;;;;;;5032867;28;20120;-13
2022/07/19 03:00:43;;;;;;;10.82;7.72;;;21.10;70.20;;;;;;5033048;28;20025;-14
2022/07/19 03:05:53;;;;;;;10.13;7.38;;;21.10;70.30;;;;;;5033128;28;20072;-13
2022/07/19 03:08:19;;;;;;;8.27;6.93;;;21.10;69.80;;;;;;5031374;28;20075;-12
2022/07/19 03:10:45;;;;;;;10.13;6.70;;;21.10;69.60;;;;;;5033225;28;20025;-14
2022/07/19 03:13:11;;;;;;;9.50;7.00;;;21.10;69.20;;;;;;5033313;28;20061;-13
2022/07/19 03:15:37;;;;;;;9.27;6.30;;;21.10;69.20;;;;;;5033518;28;20068;-14
2022/07/19 03:18:04;;;;;;;10.65;6.47;;;21.00;68.80;;;;;;5032865;28;20030;-12
2022/07/19 03:20:30;;;;;;;8.82;6.75;;;21.00;68.90;;;;;;5032643;28;20034;-14
2022/07/19 03:22:56;;;;;;;7.55;6.28;;;21.00;68.50;;;;;;5033167;28;20026;-12
2022/07/19 03:25:22;;;;;;;8.77;5.93;;;21.00;68.20;;;;;;5032719;28;20041;-13
2022/07/19 03:27:48;;;;;;;9.32;5.63;;;20.90;68.10;;;;;;5033081;28;20079;-13
2022/07/19 03:30:14;;;;;;;9.32;6.35;;;20.90;68.00;;;;;;5032714;28;20424;-14
2022/07/19 03:32:40;;;;;;;8.68;6.60;;;20.90;67.80;;;;;;5032737;28;20037;-13
2022/07/19 03:35:07;;;;;;;10.00;6.88;;;20.90;67.70;;;;;;5033057;28;20025;-13
2022/07/19 03:37:33;;;;;;;10.18;7.07;;;20.90;67.70;;;;;;5032544;28;20110;-14
2022/07/19 03:39:59;;;;;;;11.07;7.10;;;20.90;67.70;;;;;;5031706;28;20124;-14
2022/07/19 03:42:25;;;;;;;7.93;5.82;;;20.90;67.60;;;;;;5031223;28;20033;-14
2022/07/19 03:44:51;;;;;;;7.47;5.28;;;20.90;67.50;;;;;;5032565;28;20033;-14
2022/07/19 03:47:17;;;;;;;10.15;5.57;;;20.90;67.20;;;;;;5032667;28;20029;-14
2022/07/19 03:49:43;;;;;;;7.60;5.22;;;20.90;67.00;;;;;;5032689;28;20021;-14
2022/07/19 03:52:09;;;;;;;6.72;5.30;;;20.90;66.90;;;;;;5032772;28;20072;-14
2022/07/19 03:54:34;;;;;;;8.00;5.43;;;20.90;66.70;;;;;;5032511;28;20103;-14
2022/07/19 03:57:00;;;;;;;7.50;4.93;;;20.90;66.60;;;;;;5033325;28;20538;-13
2022/07/19 03:59:26;;;;;;;5.65;4.68;;;20.90;66.40;;;;;;5031349;28;20103;-13
2022/07/19 04:01:52;;;;;;;6.68;4.78;;;20.90;66.10;;;;;;5032777;28;20070;-13
2022/07/19 04:04:18;;;;;;;9.27;5.40;;;21.00;65.90;;;;;;5033314;28;20385;-12
2022/07/19 04:06:44;;;;;;;7.30;5.20;;;21.00;65.70;;;;;;5035990;28;20076;-14
2022/07/19 04:09:10;;;;;;;6.25;4.50;;;21.00;65.40;;;;;;5036205;28;20053;-14
2022/07/19 04:11:37;;;;;;;6.68;4.55;;;21.10;65.20;;;;;;5036265;28;20030;-13
2022/07/19 04:14:03;;;;;;;7.55;4.78;;;21.10;64.90;;;;;;5036083;28;20136;-13
2022/07/19 04:16:29;;;;;;;6.95;4.05;;;21.20;64.60;;;;;;5035696;28;20048;-13
2022/07/19 04:18:55;;;;;;;5.55;4.28;;;21.20;64.40;;;;;;5035824;28;20152;-13
2022/07/19 04:21:21;;;;;;;5.72;4.00;;;21.30;64.20;;;;;;5035734;28;20053;-14
2022/07/19 04:23:47;;;;;;;6.40;4.07;;;21.30;64.00;;;;;;5035548;28;20033;-13
2022/07/19 04:26:13;;;;;;;6.70;4.53;;;21.40;64.10;;;;;;5035553;28;20036;-12
2022/07/19 04:28:39;;;;;;;5.68;4.47;;;21.40;64.20;;;;;;5035605;28;20079;-14
2022/07/19 04:31:05;;;;;;;5.95;4.60;;;21.40;64.40;;;;;;5035610;28;20036;-14
2022/07/19 04:33:31;;;;;;;7.28;4.97;;;21.40;64.30;;;;;;5035883;28;20040;-14
2022/07/19 04:35:56;;;;;;;7.57;4.70;;;21.50;63.90;;;;;;5035820;28;20469;-14
2022/07/19 04:38:23;;;;;;;9.23;4.82;;;21.50;63.90;;;;;;5034910;28;20041;-12
2022/07/19 04:40:49;;;;;;;10.13;6.13;;;21.60;63.40;;;;;;5035697;28;20018;-14
2022/07/19 04:43:18;;;;;;;6.80;4.60;;;21.70;63.30;;;;;;5035519;28;20025;-12
2022/07/19 04:45:44;;;;;;;7.75;5.03;;;21.70;63.20;;;;;;5035255;28;20120;-13
2022/07/19 04:48:13;;;;;;;7.22;4.80;;;21.80;63.30;;;;;;5035281;28;20057;-13
2022/07/19 04:50:40;;;;;;;6.55;4.90;;;21.90;63.40;;;;;;5035549;28;20029;-13
2022/07/19 04:53:07;;;;;;;7.40;5.40;;;21.90;63.10;;;;;;5035432;28;20053;-14
2022/07/19 04:55:33;;;;;;;7.85;4.90;;;22.00;62.70;;;;;;5035495;28;20025;-14
2022/07/19 04:57:59;;;;;;;7.10;5.22;;;22.20;62.60;;;;;;5035341;28;20029;-14
2022/07/19 05:00:26;;;;;;;8.55;5.03;;;22.30;62.30;;;;;;5034761;28;20091;-14
2022/07/19 05:02:54;;;;;;;8.57;5.22;;;22.40;62.20;;;;;;5035414;28;20022;-14
2022/07/19 05:05:20;;;;;;;8.57;5.43;;;22.50;62.20;;;;;;5035064;28;20408;-13
2022/07/19 05:07:46;;;;;;;7.28;4.90;;;22.60;62.00;;;;;;5033644;28;20049;-13
2022/07/19 05:10:12;;;;;;;7.47;4.97;;;22.60;61.70;;;;;;5034819;28;20084;-13
2022/07/19 05:12:40;;;;;;;7.03;4.95;;;22.60;61.60;;;;;;5034804;28;20021;-13
2022/07/19 05:15:07;;;;;;;8.77;4.50;;;22.60;61.40;;;;;;5035003;28;20032;-13
2022/07/19 05:17:32;;;;;;;6.72;4.60;;;22.60;61.40;;;;;;5035047;28;20025;-13
2022/07/19 05:19:58;;;;;;;7.32;5.07;;;22.60;61.40;;;;;;5034647;28;20383;-14
2022/07/19 05:22:25;;;;;;;9.02;5.65;;;22.60;61.30;;;;;;5034385;28;20025;-14
2022/07/19 05:24:53;;;;;;;11.13;6.07;;;22.60;61.30;;;;;;5034315;28;20175;-13
2022/07/19 05:27:20;;;;;;;9.20;4.93;;;22.60;61.40;;;;;;5034963;28;20071;-13
2022/07/19 05:29:45;;;;;;;8.88;5.90;;;22.60;61.50;;;;;;5034687;28;20053;-13
2022/07/19 05:32:11;;;;;;;7.55;5.10;;;22.60;61.50;;;;;;5033165;28;20110;-13
2022/07/19 05:34:38;;;;;;;8.80;4.97;;;22.60;61.50;;;;;;5034246;28;20071;-13
2022/07/19 05:37:04;;;;;;;10.15;5.70;;;22.70;61.50;;;;;;5034510;28;20057;-14
2022/07/19 05:39:30;;;;;;;7.63;4.80;;;22.70;61.60;;;;;;5034488;28;20024;-14
2022/07/19 05:41:56;;;;;;;5.95;4.70;;;22.80;61.60;;;;;;5034282;28;20496;-13
2022/07/19 05:44:22;;;;;;;7.10;5.10;;;22.80;61.50;;;;;;5034203;28;20022;-13
2022/07/19 05:46:49;;;;;;;7.85;5.00;;;22.80;61.60;;;;;;5034192;28;20033;-13
2022/07/19 05:49:15;;;;;;;9.52;4.90;;;22.90;61.60;;;;;;5034099;28;20358;-12
2022/07/19 05:51:41;;;;;;;8.82;5.47;;;23.00;61.50;;;;;;5034445;28;20029;-13
2022/07/19 05:54:07;;;;;;;7.68;4.95;;;23.10;61.30;;;;;;5034118;28;20477;-13
2022/07/19 05:56:33;;;;;;;11.35;6.07;;;23.30;61.20;;;;;;5034114;28;20061;-13
2022/07/19 05:59:01;;;;;;;12.00;5.93;;;23.40;61.30;;;;;;5034276;28;20052;-13
2022/07/19 06:01:27;;;;;;;9.75;6.18;;;23.60;61.10;;;;;;5033907;28;20048;-13
2022/07/19 06:03:58;;;;;;;10.98;6.15;;;23.70;60.70;;;;;;5034086;28;20024;-13
2022/07/19 06:06:28;;;;;;;10.27;6.00;;;23.90;60.70;;;;;;5033884;28;20025;-13
2022/07/19 06:08:55;;;;;;;9.90;5.53;;;24.00;60.20;;;;;;5033682;28;20105;-13
2022/07/19 06:11:22;;;;;;;10.93;6.00;;;24.10;60.00;;;;;;5033713;28;20446;-13
2022/07/19 06:13:49;;;;;;;9.20;5.72;;;24.20;59.90;;;;;;5033647;28;20018;-13
2022/07/19 06:16:16;;;;;;;13.52;6.50;;;24.40;60.00;;;;;;5033758;28;20112;-13
2022/07/19 06:18:42;;;;;;;12.35;6.10;;;24.50;59.40;;;;;;5033496;28;20036;-14
2022/07/19 06:21:14;;;;;;;7.72;5.13;;;24.70;59.30;;;;;;5033612;28;20053;-13
2022/07/19 06:23:42;;;;;;;10.70;5.75;;;24.90;58.80;;;;;;5033482;28;20057;-13
2022/07/19 06:26:09;;;;;;;10.77;5.20;;;25.20;58.60;;;;;;5032348;28;20090;-13
2022/07/19 06:28:36;;;;;;;11.57;5.32;;;25.40;57.90;;;;;;5033162;28;20416;-13
2022/07/19 06:31:02;;;;;;;10.35;5.22;;;25.50;57.00;;;;;;5033461;28;20385;-14
2022/07/19 06:33:28;;;;;;;8.82;4.70;;;25.70;55.90;;;;;;5033682;28;20032;-13
2022/07/19 06:35:55;;;;;;;8.88;4.45;;;25.90;55.30;;;;;;5033537;28;20014;-13
2022/07/19 06:38:21;;;;;;;8.73;4.10;;;26.10;53.60;;;;;;5032915;28;20523;-13
2022/07/19 06:40:47;;;;;;;6.88;3.90;;;26.40;51.10;;;;;;5033866;28;20027;-12
2022/07/19 06:43:13;;;;;;;7.60;3.40;;;26.60;49.50;;;;;;5033237;28;20033;-13
2022/07/19 06:45:40;;;;;;;8.63;3.70;;;26.90;49.20;;;;;;5033092;28;20034;-13
2022/07/19 06:48:06;;;;;;;7.47;3.90;;;27.10;45.00;;;;;;5033595;28;20021;-12
2022/07/19 06:50:33;;;;;;;7.38;3.55;;;27.30;46.40;;;;;;5033204;28;20100;-13
2022/07/19 06:52:59;;;;;;;6.30;3.47;;;27.50;45.80;;;;;;5033250;28;20572;-13
2022/07/19 06:55:25;;;;;;;9.98;3.70;;;27.70;45.70;;;;;;5033121;28;20104;-13
2022/07/19 06:57:51;;;;;;;6.28;3.45;;;27.90;45.00;;;;;;5033353;28;20026;-12
2022/07/19 07:00:17;;;;;;;8.82;3.60;;;28.10;44.20;;;;;;5032919;28;20377;-12
2022/07/19 07:02:43;;;;;;;23.23;4.82;;;28.40;44.20;;;;;;5033285;28;20049;-12
2022/07/19 07:05:11;;;;;;;6.90;3.70;;;28.40;43.50;;;;;;5032917;28;20500;-12
2022/07/19 07:07:39;;;;;;;5.40;3.47;;;28.60;42.30;;;;;;5032982;28;20416;-13
2022/07/19 07:10:07;;;;;;;6.40;3.35;;;28.80;42.20;;;;;;5032875;28;20104;-12
2022/07/19 07:12:33;;;;;;;8.50;3.55;;;28.90;41.90;;;;;;5032796;28;20037;-13
2022/07/19 07:14:59;;;;;;;7.50;3.35;;;29.10;41.50;;;;;;5033373;28;20381;-13
2022/07/19 07:17:25;;;;;;;6.65;3.40;;;29.20;41.30;;;;;;5032833;28;20032;-12
2022/07/19 07:19:51;;;;;;;12.77;3.60;;;29.40;40.90;;;;;;5032876;28;20033;-13
2022/07/19 07:22:18;;;;;;;9.68;4.05;;;29.50;40.00;;;;;;5032651;28;20018;-13
2022/07/19 07:24:44;;;;;;;9.30;3.72;;;29.60;40.60;;;;;;5032688;28;20511;-13
2022/07/19 07:27:10;;;;;;;14.60;3.80;;;29.70;39.50;;;;;;5033011;28;20385;-13
2022/07/19 07:29:36;;;;;;;7.60;3.25;;;29.90;40.60;;;;;;5033119;28;20032;-13
2022/07/19 07:32:02;;;;;;;8.73;3.35;;;30.00;37.90;;;;;;5032973;28;20492;-13
2022/07/19 07:34:28;;;;;;;7.15;3.30;;;30.20;39.00;;;;;;5031332;28;20065;-13
2022/07/19 07:36:54;;;;;;;4.85;3.30;;;30.40;39.10;;;;;;5031979;28;20103;-14
2022/07/19 07:39:20;;;;;;;6.22;3.50;;;30.40;38.70;;;;;;5033847;28;20377;-13
2022/07/19 07:41:46;;;;;;;6.82;3.63;;;30.60;38.50;;;;;;5036810;28;20028;-13
2022/07/19 07:44:12;;;;;;;4.35;3.53;;;30.70;38.80;;;;;;5036401;28;20038;-12
2022/07/19 07:46:38;;;;;;;7.97;3.30;;;30.90;39.00;;;;;;5037171;28;20025;-13
2022/07/19 07:49:04;;;;;;;5.43;3.55;;;31.20;38.10;;;;;;5036683;28;20035;-12
2022/07/19 07:51:30;;;;;;;6.20;3.50;;;31.30;37.80;;;;;;5036382;28;20033;-12
2022/07/19 07:53:58;;;;;;;4.72;3.15;;;31.40;37.80;;;;;;5035032;28;20029;-12
2022/07/19 07:56:24;;;;;;;9.07;3.22;;;31.60;38.10;;;;;;5036436;28;20108;-13
2022/07/19 07:58:50;;;;;;;5.95;3.42;;;31.80;37.10;;;;;;5036242;28;20450;-12
2022/07/19 08:01:17;;;;;;;5.60;3.30;;;31.90;35.90;;;;;;5036536;28;20540;-12
2022/07/19 08:03:44;;;;;;;6.47;3.13;;;32.10;35.80;;;;;;5036113;28;20026;-12
2022/07/19 08:06:10;;;;;;;8.68;3.25;;;32.20;35.80;;;;;;5036022;28;20492;-12
2022/07/19 08:08:38;;;;;;;10.05;3.33;;;32.30;35.30;;;;;;5036118;28;20060;-13
2022/07/19 08:11:04;;;;;;;5.25;3.08;;;32.40;35.30;;;;;;5036243;28;20028;-12
2022/07/19 08:13:30;;;;;;;4.97;3.40;;;32.50;35.20;;;;;;5035963;28;20033;-13
2022/07/19 08:15:56;;;;;;;6.10;2.90;;;32.60;35.40;;;;;;5035875;28;20074;-13
2022/07/19 08:18:22;;;;;;;7.20;3.40;;;32.80;35.30;;;;;;5035657;28;20176;-12
2022/07/19 08:20:48;;;;;;;5.18;3.00;;;33.00;35.20;;;;;;5035794;28;20029;-13
2022/07/19 08:23:14;;;;;;;7.05;3.65;;;33.30;35.20;;;;;;5036291;28;20060;-13
2022/07/19 08:25:40;;;;;;;5.22;3.40;;;33.50;34.30;;;;;;5035646;28;20563;-13
2022/07/19 08:28:06;;;;;;;6.82;3.60;;;33.50;33.80;;;;;;5035691;28;20029;-13
2022/07/19 08:30:33;;;;;;;6.07;3.15;;;33.60;33.50;;;;;;5035541;28;20040;-13
2022/07/19 08:33:00;;;;;;;15.80;4.88;;;33.80;33.60;;;;;;5034368;28;20025;-13
2022/07/19 08:35:27;;;;;;;6.32;3.47;;;33.90;33.90;;;;;;5035528;28;20026;-13
2022/07/19 08:37:53;;;;;;;7.45;3.40;;;34.10;33.30;;;;;;5035414;28;20050;-13
2022/07/19 08:40:19;;;;;;;5.43;3.15;;;34.30;33.30;;;;;;5033927;28;20025;-13
2022/07/19 08:42:46;;;;;;;6.32;3.47;;;34.50;32.80;;;;;;5036101;28;20501;-13
2022/07/19 08:45:12;;;;;;;5.10;3.40;;;34.50;33.10;;;;;;5035672;28;20033;-13
2022/07/19 08:47:38;;;;;;;5.65;3.40;;;34.60;33.00;;;;;;5035587;28;20037;-12
2022/07/19 08:50:08;;;;;;;5.47;3.40;;;34.70;32.80;;;;;;5034854;28;20385;-13
2022/07/19 08:52:34;;;;;;;6.78;3.42;;;34.80;32.60;;;;;;5035152;28;20022;-12
2022/07/19 08:55:01;;;;;;;5.53;3.47;;;34.90;32.60;;;;;;5035057;28;20025;-12
2022/07/19 09:00:13;;;;;;;4.07;3.20;;;34.90;32.20;;;;;;5035436;28;20032;-13
2022/07/19 09:02:40;;;;;;;5.15;3.22;;;35.00;31.70;;;;;;5035355;28;20033;-13
2022/07/19 09:05:09;;;;;;;6.50;3.35;;;35.30;31.70;;;;;;5035381;28;20124;-13
2022/07/19 09:07:36;;;;;;;6.68;3.28;;;35.50;31.30;;;;;;5035080;28;20096;-13
2022/07/19 09:10:17;;;;;;;4.55;3.15;;;35.70;29.40;;;;;;5034746;28;20037;-13
2022/07/19 09:13:04;;;;;;;6.13;3.10;;;35.70;28.70;;;;;;5035126;28;20063;-13
2022/07/19 09:15:51;;;;;;;3.88;2.90;;;35.90;28.50;;;;;;5035108;28;20071;-13
2022/07/19 09:18:19;;;;;;;4.65;3.10;;;36.00;28.00;;;;;;5034546;28;20113;-13
2022/07/19 09:20:47;;;;;;;3.10;2.80;;;36.00;28.40;;;;;;5035003;28;20099;-13
2022/07/19 09:23:15;;;;;;;4.43;3.13;;;36.10;29.70;;;;;;5033367;28;20088;-13
2022/07/19 09:25:48;;;;;;;8.63;3.50;;;36.30;29.50;;;;;;5034597;28;20036;-13
2022/07/19 09:28:16;;;;;;;5.00;3.03;;;36.50;29.40;;;;;;5034648;28;20021;-13
2022/07/19 09:30:44;;;;;;;5.35;3.00;;;36.60;29.00;;;;;;5034843;28;20057;-13
2022/07/19 09:33:22;;;;;;;3.55;3.08;;;36.60;28.80;;;;;;5034787;28;20104;-13
2022/07/19 09:35:50;;;;;;;6.50;2.92;;;36.80;28.70;;;;;;5034719;28;20083;-13
2022/07/19 09:38:31;;;;;;;3.47;2.65;;;36.90;28.30;;;;;;5033945;28;20552;-13
2022/07/19 09:41:18;;;;;;;7.75;3.08;;;37.10;27.80;;;;;;5034808;28;20385;-12
2022/07/19 09:43:58;;;;;;;3.30;2.80;;;37.10;27.50;;;;;;5034414;28;20017;-12
2022/07/19 09:46:36;;;;;;;6.25;3.03;;;37.40;28.00;;;;;;5034110;28;20040;-13
2022/07/19 09:49:13;;;;;;;4.18;3.13;;;37.20;26.40;;;;;;5034149;28;20026;-13
2022/07/19 09:51:42;;;;;;;3.20;2.83;;;37.10;28.00;;;;;;5034180;28;20025;-12
2022/07/19 09:54:12;;;;;;;4.63;2.97;;;37.40;27.70;;;;;;5034108;28;20382;-12
2022/07/19 09:56:39;;;;;;;6.88;2.90;;;37.60;27.70;;;;;;5033965;28;20481;-13
2022/07/19 09:59:06;;;;;;;4.07;2.72;;;37.90;27.80;;;;;;5034405;28;20028;-12
2022/07/19 10:01:33;;;;;;;5.93;2.80;;;38.20;27.50;;;;;;5033251;28;20554;-13
2022/07/19 10:04:22;;;;;;;3.20;2.90;;;38.50;26.70;;;;;;5034045;28;20025;-11
2022/07/19 10:06:50;;;;;;;4.43;2.70;;;38.40;26.80;;;;;;5033762;28;20083;-12
2022/07/19 10:09:19;;;;;;;4.68;2.97;;;38.50;26.90;;;;;;5032498;28;20022;-12
2022/07/19 10:11:45;;;;;;;4.18;2.58;;;38.70;26.40;;;;;;5034026;28;20022;-12
2022/07/19 10:14:12;;;;;;;3.58;2.67;;;38.90;26.30;;;;;;5033693;28;20432;-12
2022/07/19 10:16:53;;;;;;;5.18;2.80;;;39.10;25.90;;;;;;5033943;28;20056;-12
2022/07/19 10:19:38;;;;;;;5.47;2.95;;;39.20;26.00;;;;;;5033977;28;20109;-12
2022/07/19 10:22:08;;;;;;;4.25;2.80;;;39.20;26.90;;;;;;5033821;28;20041;-12
2022/07/19 10:24:47;;;;;;;5.70;3.10;;;39.40;26.70;;;;;;5033580;28;20095;-12
2022/07/19 10:27:16;;;;;;;3.35;2.78;;;39.80;25.50;;;;;;5033762;28;20029;-12
2022/07/19 10:29:42;;;;;;;5.80;2.70;;;39.90;25.70;;;;;;5033352;28;20071;-12
2022/07/19 10:32:13;;;;;;;6.93;3.33;;;40.00;25.80;;;;;;5033517;28;20033;-12
2022/07/19 10:34:40;;;;;;;4.68;2.60;;;40.00;24.60;;;;;;5033744;28;20440;-12
2022/07/19 10:37:07;;;;;;;4.93;2.80;;;40.10;25.40;;;;;;5033386;28;20072;-12
2022/07/19 10:39:39;;;;;;;3.35;2.50;;;40.40;25.00;;;;;;5033601;28;20033;-12
2022/07/19 10:42:22;;;;;;;3.78;2.80;;;40.50;25.00;;;;;;5033363;28;20515;-12
2022/07/19 10:44:59;;;;;;;4.00;2.78;;;40.80;25.10;;;;;;5033424;28;20044;-13
2022/07/19 10:47:31;;;;;;;5.35;2.80;;;40.90;23.90;;;;;;5033180;28;20021;-13
2022/07/19 10:50:02;;;;;;;4.57;2.83;;;41.00;23.50;;;;;;5033451;28;20030;-12
2022/07/19 10:52:28;;;;;;;6.22;2.88;;;41.00;24.40;;;;;;5032991;28;20452;-12
2022/07/19 10:55:16;;;;;;;4.43;2.80;;;41.00;24.50;;;;;;5033258;28;20079;-12
2022/07/19 10:57:45;;;;;;;2.83;2.60;;;40.60;24.00;;;;;;5033456;28;20033;-12
2022/07/19 11:00:31;;;;;;;4.28;2.70;;;40.50;24.30;;;;;;5033359;28;20067;-12
2022/07/19 11:03:22;;;;;;;4.43;2.90;;;40.80;24.20;;;;;;5033031;28;20088;-12
2022/07/19 11:05:59;;;;;;;2.70;2.50;;;41.10;23.30;;;;;;5032981;28;20042;-12
2022/07/19 11:08:42;;;;;;;3.25;2.70;;;41.60;24.00;;;;;;5032649;28;20385;-13
2022/07/19 11:11:11;;;;;;;3.58;2.70;;;42.20;23.00;;;;;;5033046;28;20083;-12
2022/07/19 11:13:38;;;;;;;6.10;2.90;;;42.50;22.40;;;;;;5034916;28;20032;-13
2022/07/19 11:16:06;;;;;;;5.97;2.90;;;42.70;22.40;;;;;;5037162;28;20045;-12
2022/07/19 11:18:32;;;;;;;4.18;2.60;;;42.60;22.10;;;;;;5036926;28;20030;-13
2022/07/19 11:21:01;;;;;;;8.00;3.20;;;42.60;22.50;;;;;;5036958;28;20036;-12
2022/07/19 11:23:32;;;;;;;3.45;3.05;;;42.90;22.60;;;;;;5036788;28;20453;-12
2022/07/19 11:26:20;;;;;;;3.70;2.85;;;43.00;22.30;;;;;;5036820;28;20408;-12
2022/07/19 11:28:48;;;;;;;5.35;2.80;;;43.20;21.60;;;;;;5036832;28;20040;-12
2022/07/19 11:31:22;;;;;;;3.22;2.50;;;43.20;21.60;;;;;;5036991;28;20029;-12
2022/07/19 11:33:53;;;;;;;4.75;2.60;;;43.30;22.00;;;;;;5037018;28;20056;-12
2022/07/19 11:36:19;;;;;;;3.15;2.70;;;43.40;22.10;;;;;;5036513;28;20056;-13
2022/07/19 11:38:47;;;;;;;3.53;2.80;;;43.80;21.90;;;;;;5036322;28;20056;-13
2022/07/19 11:41:19;;;;;;;4.10;2.50;;;43.90;21.50;;;;;;5036903;28;20022;-12
2022/07/19 11:44:00;;;;;;;3.05;2.47;;;44.00;21.70;;;;;;5036458;28;20560;-13
2022/07/19 11:46:39;;;;;;;4.78;3.10;;;44.20;20.90;;;;;;5036384;28;20077;-13
2022/07/19 11:49:06;;;;;;;4.28;2.70;;;44.40;20.20;;;;;;5036735;28;20021;-12
2022/07/19 11:51:33;;;;;;;3.58;2.40;;;44.40;21.20;;;;;;5036369;28;20033;-12
2022/07/19 11:54:01;;;;;;;4.53;2.63;;;44.70;21.40;;;;;;5036423;28;20104;-13
2022/07/19 11:56:29;;;;;;;3.58;2.75;;;44.90;21.40;;;;;;5036100;28;20033;-12
2022/07/19 11:58:58;;;;;;;4.25;2.97;;;45.10;21.00;;;;;;5036229;28;20568;-13
2022/07/19 12:01:25;;;;;;;6.75;2.90;;;45.10;20.90;;;;;;5036529;28;20021;-13
2022/07/19 12:04:11;;;;;;;4.97;3.00;;;45.30;20.80;;;;;;5036457;28;20025;-13
2022/07/19 12:06:45;;;;;;;4.45;2.70;;;45.50;19.70;;;;;;5036238;28;20033;-13
2022/07/19 12:09:27;;;;;;;3.05;2.67;;;45.10;20.10;;;;;;5035955;28;20442;-12
2022/07/19 12:11:55;;;;;;;4.93;2.95;;;45.10;19.80;;;;;;5036043;28;20461;-12
2022/07/19 12:14:25;;;;;;;4.50;2.60;;;45.20;20.50;;;;;;5035694;28;20067;-13
2022/07/19 12:17:10;;;;;;;4.82;2.92;;;45.20;20.70;;;;;;5035916;28;20029;-12
2022/07/19 12:19:37;;;;;;;4.45;2.80;;;45.10;20.20;;;;;;5035888;28;20043;-13
2022/07/19 12:22:35;;;;;;;4.13;2.65;;;44.50;20.80;;;;;;5035824;28;20044;-12
2022/07/19 12:25:02;;;;;;;4.57;2.70;;;44.00;21.00;;;;;;5035238;28;20041;-12
2022/07/19 12:27:30;;;;;;;3.97;2.55;;;43.80;21.20;;;;;;5036041;28;20018;-13
2022/07/19 12:29:58;;;;;;;4.10;2.67;;;43.70;21.00;;;;;;5035965;28;20501;-12
2022/07/19 12:32:33;;;;;;;2.80;2.60;;;43.60;21.20;;;;;;5035439;28;20033;-13
2022/07/19 12:35:03;;;;;;;2.55;2.25;;;44.00;21.10;;;;;;5035871;28;20025;-13
2022/07/19 12:37:50;;;;;;;6.50;2.70;;;44.40;21.10;;;;;;5035536;28;20085;-13
2022/07/19 12:40:25;;;;;;;2.70;2.30;;;44.70;20.70;;;;;;5035243;28;20034;-13
2022/07/19 12:43:00;;;;;;;2.55;2.35;;;44.90;20.80;;;;;;5035462;28;20037;-13
2022/07/19 12:45:30;;;;;;;3.53;2.40;;;45.20;20.80;;;;;;5035312;28;20037;-13
2022/07/19 12:47:56;;;;;;;3.35;2.60;;;45.60;20.20;;;;;;5035612;28;20033;-13
2022/07/19 12:50:26;;;;;;;4.32;2.42;;;45.80;19.80;;;;;;5035132;28;20104;-13
2022/07/19 12:52:54;;;;;;;3.10;2.53;;;45.90;19.50;;;;;;5035269;28;20477;-13
2022/07/19 12:55:21;;;;;;;4.20;2.53;;;45.90;19.80;;;;;;5035238;28;20021;-13